Time;durP1;ratioP1;P1;durP2;ratioP2;P2;SDS_P1;SDS_P2;PMS_P1;PMS_P2;Temp;Humidity;BMP_temperature;BMP_pressure;BME280_temperature;BME280_humidity;BME280_pressure;Samples;Min_cycle;Max_cycle;Signal;HPM_P1;HPM_P2
2021/05/01 00:01:05;;;;;;;18.97;14.67;;;9.20;99.90;;;;;;5035265;28;20242;-69
2021/05/01 00:03:31;;;;;;;21.57;15.13;;;9.20;99.90;;;;;;5034238;28;20249;-68
2021/05/01 00:05:57;;;;;;;18.97;15.17;;;9.20;99.90;;;;;;5033184;28;20284;-68
2021/05/01 00:08:28;;;;;;;18.10;14.23;;;9.20;99.90;;;;;;5035205;28;20206;-69
2021/05/01 00:10:56;;;;;;;19.13;14.73;;;9.10;99.90;;;;;;5033703;28;20620;-67
2021/05/01 00:13:23;;;;;;;18.97;14.97;;;9.10;99.90;;;;;;5028602;28;20231;-68
2021/05/01 00:15:49;;;;;;;20.77;15.30;;;9.00;99.90;;;;;;5031912;28;20207;-68
2021/05/01 00:18:15;;;;;;;19.60;15.03;;;9.00;99.90;;;;;;5035494;28;20203;-68
2021/05/01 00:20:42;;;;;;;22.17;15.20;;;9.00;99.90;;;;;;5035880;28;20232;-69
2021/05/01 00:23:08;;;;;;;22.40;15.27;;;9.00;99.90;;;;;;5035685;28;20417;-70
2021/05/01 00:25:36;;;;;;;20.23;15.50;;;9.00;99.90;;;;;;5033670;28;20301;-69
2021/05/01 00:28:03;;;;;;;23.20;15.60;;;9.10;99.90;;;;;;5031700;28;20226;-69
2021/05/01 00:30:30;;;;;;;18.77;15.37;;;9.10;99.90;;;;;;5032632;28;20231;-69
2021/05/01 00:32:57;;;;;;;21.87;15.93;;;9.10;99.90;;;;;;5034567;28;20234;-70
2021/05/01 00:35:24;;;;;;;21.87;15.97;;;9.20;99.90;;;;;;5034430;28;20237;-69
2021/05/01 00:37:50;;;;;;;23.53;16.57;;;9.30;99.90;;;;;;5034258;28;20324;-69
2021/05/01 00:40:17;;;;;;;21.33;15.57;;;9.30;99.90;;;;;;5034217;28;20213;-69
2021/05/01 00:42:44;;;;;;;20.30;16.03;;;9.40;99.90;;;;;;5035993;28;20600;-69
2021/05/01 00:45:11;;;;;;;21.63;16.47;;;9.40;99.90;;;;;;5034915;28;20294;-69
2021/05/01 00:47:38;;;;;;;23.63;17.20;;;9.40;99.90;;;;;;5030801;28;20755;-69
2021/05/01 00:50:05;;;;;;;21.47;17.07;;;9.40;99.90;;;;;;5033221;28;20234;-69
2021/05/01 00:52:33;;;;;;;22.80;16.60;;;9.40;99.90;;;;;;5035628;28;20289;-69
2021/05/01 00:54:59;;;;;;;22.67;16.53;;;9.40;99.90;;;;;;5035322;28;20217;-69
2021/05/01 00:57:26;;;;;;;22.50;16.43;;;9.40;99.90;;;;;;5033772;28;20206;-69
2021/05/01 00:59:53;;;;;;;24.63;16.40;;;9.40;99.90;;;;;;5034817;28;20337;-69
2021/05/01 01:02:22;;;;;;;20.53;16.37;;;9.40;99.90;;;;;;5035473;28;20293;-69
2021/05/01 01:04:49;;;;;;;21.97;16.00;;;9.40;99.90;;;;;;5029856;28;20211;-70
2021/05/01 01:07:16;;;;;;;20.73;16.13;;;9.50;99.90;;;;;;5034790;28;20211;-70
2021/05/01 01:09:42;;;;;;;21.33;16.30;;;9.50;99.90;;;;;;5034789;28;20241;-68
2021/05/01 01:12:09;;;;;;;22.03;16.43;;;9.50;99.90;;;;;;5032618;28;20294;-68
2021/05/01 01:14:35;;;;;;;20.13;16.30;;;9.50;99.90;;;;;;5032556;28;20226;-70
2021/05/01 01:17:04;;;;;;;20.63;16.07;;;9.60;99.90;;;;;;5031419;28;20349;-69
2021/05/01 01:19:31;;;;;;;22.53;16.03;;;9.60;99.90;;;;;;5033980;28;20213;-69
2021/05/01 01:21:58;;;;;;;21.27;15.53;;;9.60;99.90;;;;;;5032002;28;20206;-70
2021/05/01 01:24:30;;;;;;;20.53;16.17;;;9.60;99.90;;;;;;5030932;28;20256;-69
2021/05/01 01:26:56;;;;;;;22.93;16.97;;;9.60;99.90;;;;;;5032959;28;20207;-69
2021/05/01 01:29:25;;;;;;;20.83;16.97;;;9.70;99.90;;;;;;5032208;28;20206;-69
2021/05/01 01:31:52;;;;;;;21.30;16.70;;;9.70;99.90;;;;;;5034298;28;20241;-70
2021/05/01 01:34:18;;;;;;;22.30;17.03;;;9.70;99.90;;;;;;5031820;28;20622;-69
2021/05/01 01:36:45;;;;;;;21.73;16.60;;;9.70;99.90;;;;;;5031006;28;20221;-70
2021/05/01 01:39:11;;;;;;;22.00;17.23;;;9.70;99.90;;;;;;5033414;28;20293;-68
2021/05/01 01:41:38;;;;;;;22.60;17.03;;;9.70;99.90;;;;;;5033852;28;20682;-69
2021/05/01 01:44:06;;;;;;;23.03;16.80;;;9.70;99.90;;;;;;5034069;28;20230;-69
2021/05/01 01:46:33;;;;;;;22.93;16.83;;;9.60;99.90;;;;;;5031364;28;20211;-68
2021/05/01 01:49:01;;;;;;;23.73;17.03;;;9.70;99.90;;;;;;5033502;28;20246;-69
2021/05/01 01:51:27;;;;;;;21.17;16.90;;;9.70;99.90;;;;;;5030059;28;20261;-68
2021/05/01 01:53:54;;;;;;;23.53;17.27;;;10.00;99.90;;;;;;5030990;28;20203;-70
2021/05/01 01:56:20;;;;;;;21.60;16.20;;;9.70;99.90;;;;;;5033659;28;20309;-68
2021/05/01 01:58:48;;;;;;;23.47;17.90;;;9.70;99.90;;;;;;5032222;28;20624;-67
2021/05/01 02:01:14;;;;;;;21.50;16.73;;;9.70;99.90;;;;;;5032341;28;20217;-69
2021/05/01 02:03:41;;;;;;;22.97;16.63;;;9.70;99.90;;;;;;5033481;28;20245;-68
2021/05/01 02:06:07;;;;;;;23.53;17.70;;;9.70;99.90;;;;;;5030412;28;20659;-69
2021/05/01 02:08:34;;;;;;;26.33;18.90;;;9.80;99.90;;;;;;5034133;28;20214;-69
2021/05/01 02:11:00;;;;;;;24.00;18.03;;;9.70;99.90;;;;;;5033860;28;20230;-70
2021/05/01 02:13:27;;;;;;;21.43;17.87;;;9.70;99.90;;;;;;5031866;28;20218;-68
2021/05/01 02:15:54;;;;;;;22.03;16.70;;;9.70;99.90;;;;;;5034362;28;20599;-68
2021/05/01 02:18:20;;;;;;;24.23;17.90;;;9.70;99.90;;;;;;5031392;28;20238;-70
2021/05/01 02:20:47;;;;;;;22.53;16.57;;;9.70;99.90;;;;;;5031688;28;20226;-68
2021/05/01 02:23:13;;;;;;;22.87;16.53;;;9.70;99.90;;;;;;5033502;28;20222;-68
2021/05/01 02:25:40;;;;;;;21.33;16.97;;;9.70;99.90;;;;;;5031387;28;20648;-68
2021/05/01 02:28:06;;;;;;;21.60;16.77;;;9.70;99.90;;;;;;5031279;28;20712;-69
2021/05/01 02:30:34;;;;;;;21.90;16.17;;;9.70;99.90;;;;;;5033624;28;20649;-69
2021/05/01 02:33:02;;;;;;;24.03;17.57;;;9.70;99.90;;;;;;5033534;28;20330;-68
2021/05/01 02:35:31;;;;;;;23.43;17.37;;;9.80;99.90;;;;;;5034307;28;20298;-68
2021/05/01 02:37:58;;;;;;;19.87;15.90;;;9.80;99.90;;;;;;5037439;28;20318;-69
2021/05/01 02:40:28;;;;;;;22.07;15.77;;;9.80;99.90;;;;;;5036337;28;20643;-69
2021/05/01 02:42:54;;;;;;;20.90;16.20;;;9.70;99.90;;;;;;5036528;28;20642;-69
2021/05/01 02:45:21;;;;;;;18.97;15.57;;;9.70;99.90;;;;;;5037022;28;20864;-69
2021/05/01 02:47:48;;;;;;;22.23;16.40;;;9.60;99.90;;;;;;5032454;28;20210;-68
2021/05/01 02:50:16;;;;;;;20.00;15.93;;;9.70;99.90;;;;;;5035650;28;20314;-69
2021/05/01 02:52:43;;;;;;;20.23;15.93;;;9.50;99.90;;;;;;5035364;28;20306;-69
2021/05/01 02:55:11;;;;;;;20.03;15.97;;;9.60;99.90;;;;;;5037479;28;20294;-68
2021/05/01 02:57:38;;;;;;;22.73;16.80;;;9.50;99.90;;;;;;5034493;28;20274;-69
2021/05/01 03:00:07;;;;;;;23.17;15.73;;;9.50;99.90;;;;;;5036976;28;20237;-68
2021/05/01 03:02:33;;;;;;;22.07;17.07;;;9.40;99.90;;;;;;5034636;28;20245;-68
2021/05/01 03:05:00;;;;;;;22.37;16.60;;;9.40;99.90;;;;;;5036329;28;20202;-68
2021/05/01 03:07:27;;;;;;;19.97;15.83;;;9.40;99.90;;;;;;5035550;28;20306;-69
2021/05/01 03:09:54;;;;;;;21.13;16.00;;;9.40;99.90;;;;;;5034129;28;20294;-68
2021/05/01 03:12:20;;;;;;;18.13;14.43;;;9.30;99.90;;;;;;5036632;28;20268;-69
2021/05/01 03:14:47;;;;;;;22.37;16.73;;;9.40;99.90;;;;;;5034875;28;20219;-68
2021/05/01 03:17:14;;;;;;;22.50;15.50;;;9.40;99.90;;;;;;5034581;28;20203;-69
2021/05/01 03:19:40;;;;;;;18.70;14.37;;;9.40;99.90;;;;;;5033762;28;20211;-68
2021/05/01 03:22:08;;;;;;;20.47;15.07;;;9.40;99.90;;;;;;5033913;28;20629;-68
2021/05/01 03:24:37;;;;;;;18.80;14.97;;;9.40;99.90;;;;;;5034200;28;20236;-69
2021/05/01 03:27:05;;;;;;;20.33;15.73;;;9.40;99.90;;;;;;5036668;28;20292;-69
2021/05/01 03:29:31;;;;;;;20.80;14.90;;;9.40;99.90;;;;;;5035920;28;20257;-68
2021/05/01 03:31:57;;;;;;;18.47;14.43;;;9.50;99.90;;;;;;5034891;28;20250;-69
2021/05/01 03:34:24;;;;;;;21.90;15.70;;;9.50;99.90;;;;;;5035709;28;20575;-68
2021/05/01 03:36:50;;;;;;;19.30;14.70;;;9.60;99.90;;;;;;5036430;28;20290;-69
2021/05/01 03:39:17;;;;;;;20.00;15.53;;;9.60;99.90;;;;;;5033145;28;20207;-69
2021/05/01 03:41:44;;;;;;;20.07;15.43;;;9.60;99.90;;;;;;5036302;28;20211;-68
2021/05/01 03:44:11;;;;;;;18.67;14.77;;;9.60;99.90;;;;;;5035004;28;20218;-69
2021/05/01 03:46:37;;;;;;;20.53;15.20;;;9.70;99.90;;;;;;5034686;28;20732;-69
2021/05/01 03:49:04;;;;;;;19.73;16.07;;;9.70;99.90;;;;;;5033150;28;20291;-68
2021/05/01 03:51:31;;;;;;;19.40;15.37;;;9.70;99.90;;;;;;5034470;28;20572;-69
2021/05/01 03:53:57;;;;;;;22.33;15.47;;;9.70;99.90;;;;;;5035188;28;20238;-68
2021/05/01 03:56:23;;;;;;;21.40;16.43;;;9.60;99.90;;;;;;5035093;28;20558;-69
2021/05/01 03:58:51;;;;;;;20.93;16.07;;;9.60;99.90;;;;;;5033087;28;20244;-69
2021/05/01 04:01:17;;;;;;;22.57;16.77;;;9.60;99.90;;;;;;5035969;28;20242;-68
2021/05/01 04:03:44;;;;;;;19.33;14.57;;;9.60;99.90;;;;;;5035229;28;20213;-69
2021/05/01 04:06:11;;;;;;;18.60;15.37;;;9.60;99.90;;;;;;5035644;28;20210;-69
2021/05/01 04:08:38;;;;;;;21.03;15.77;;;9.50;99.90;;;;;;5035542;28;20214;-67
2021/05/01 04:11:05;;;;;;;22.37;16.50;;;9.40;99.90;;;;;;5035298;28;20222;-69
2021/05/01 04:13:31;;;;;;;22.23;16.50;;;9.40;99.90;;;;;;5032737;28;20295;-70
2021/05/01 04:15:59;;;;;;;21.63;17.03;;;9.30;99.90;;;;;;5035102;28;20641;-69
2021/05/01 04:18:25;;;;;;;24.10;17.43;;;9.30;99.90;;;;;;5031261;28;20211;-70
2021/05/01 04:20:52;;;;;;;23.13;16.93;;;9.30;99.90;;;;;;5035624;28;20286;-68
2021/05/01 04:23:18;;;;;;;21.93;16.40;;;9.30;99.90;;;;;;5034686;28;20221;-68
2021/05/01 04:25:46;;;;;;;23.00;16.30;;;9.20;99.90;;;;;;5032978;28;20214;-69
2021/05/01 04:28:12;;;;;;;23.53;16.47;;;9.20;99.90;;;;;;5033981;28;20207;-68
2021/05/01 04:30:39;;;;;;;23.20;16.87;;;9.20;99.90;;;;;;5035242;28;20230;-68
2021/05/01 04:33:08;;;;;;;22.87;17.03;;;9.10;99.90;;;;;;5034503;28;20270;-68
2021/05/01 04:35:34;;;;;;;22.33;16.33;;;9.20;99.90;;;;;;5033865;28;20213;-70
2021/05/01 04:38:00;;;;;;;24.33;17.47;;;9.20;99.90;;;;;;5033442;28;20236;-69
2021/05/01 04:40:27;;;;;;;21.50;16.37;;;9.20;99.90;;;;;;5029955;28;20273;-69
2021/05/01 04:42:59;;;;;;;21.80;17.17;;;9.20;99.90;;;;;;5034204;28;20294;-68
2021/05/01 04:45:26;;;;;;;27.40;17.73;;;9.20;99.90;;;;;;5034778;28;20679;-69
2021/05/01 04:47:52;;;;;;;21.17;16.03;;;9.30;99.90;;;;;;5034022;28;20722;-67
2021/05/01 04:50:20;;;;;;;20.63;16.00;;;9.40;99.90;;;;;;5034715;28;20700;-68
2021/05/01 04:52:46;;;;;;;23.10;16.40;;;9.50;99.90;;;;;;5033987;28;20211;-69
2021/05/01 04:55:13;;;;;;;20.13;16.10;;;9.50;99.90;;;;;;5034266;28;20199;-71
2021/05/01 04:57:41;;;;;;;20.23;16.03;;;9.60;99.90;;;;;;5033578;28;20218;-69
2021/05/01 05:00:10;;;;;;;20.40;16.30;;;9.60;99.90;;;;;;5029196;28;20343;-68
2021/05/01 05:02:36;;;;;;;21.47;16.27;;;9.60;99.90;;;;;;5030664;28;20231;-68
2021/05/01 05:05:04;;;;;;;21.27;14.70;;;9.60;99.90;;;;;;5034419;28;20214;-70
2021/05/01 05:07:31;;;;;;;19.40;14.40;;;9.60;99.90;;;;;;5034344;28;20263;-68
2021/05/01 05:09:57;;;;;;;18.10;14.17;;;9.60;99.90;;;;;;5034593;28;20207;-69
2021/05/01 05:12:24;;;;;;;17.77;14.03;;;9.60;99.90;;;;;;5033806;28;20230;-68
2021/05/01 05:14:50;;;;;;;17.90;13.47;;;9.60;99.90;;;;;;5034272;28;20234;-69
2021/05/01 05:17:17;;;;;;;18.67;14.30;;;9.60;99.90;;;;;;5034720;28;20576;-70
2021/05/01 05:19:43;;;;;;;17.90;14.23;;;9.50;99.90;;;;;;5034288;28;20232;-70
2021/05/01 05:22:10;;;;;;;17.77;14.07;;;9.50;99.90;;;;;;5034383;28;20266;-70
2021/05/01 05:24:38;;;;;;;17.97;13.57;;;9.50;99.90;;;;;;5033731;28;20671;-70
2021/05/01 05:27:05;;;;;;;18.67;14.17;;;9.50;99.90;;;;;;5034506;28;20210;-69
2021/05/01 05:29:32;;;;;;;19.97;15.27;;;9.50;99.90;;;;;;5030418;28;20207;-68
2021/05/01 05:31:59;;;;;;;17.57;14.13;;;9.50;99.90;;;;;;5032630;28;20283;-68
2021/05/01 05:34:25;;;;;;;22.37;15.23;;;9.40;99.90;;;;;;5032071;28;20237;-68
2021/05/01 05:36:52;;;;;;;20.00;14.20;;;9.50;99.90;;;;;;5034475;28;20295;-70
2021/05/01 05:39:18;;;;;;;19.27;14.30;;;9.40;99.90;;;;;;5033775;28;20741;-69
2021/05/01 05:41:46;;;;;;;19.73;14.27;;;9.50;99.90;;;;;;5034312;28;20293;-70
2021/05/01 05:44:12;;;;;;;16.60;13.67;;;9.50;99.90;;;;;;5025444;28;20214;-68
2021/05/01 05:46:39;;;;;;;18.57;15.07;;;9.50;99.90;;;;;;5031151;28;20746;-68
2021/05/01 05:49:05;;;;;;;16.90;12.70;;;9.50;99.90;;;;;;5032854;28;20266;-69
2021/05/01 05:51:32;;;;;;;15.83;12.70;;;9.60;99.90;;;;;;5032854;28;20257;-68
2021/05/01 05:53:58;;;;;;;19.33;14.20;;;9.50;99.90;;;;;;5033155;28;20368;-68
2021/05/01 05:56:25;;;;;;;19.20;14.10;;;9.50;99.90;;;;;;5032349;28;20647;-69
2021/05/01 05:58:55;;;;;;;18.97;14.53;;;9.40;99.90;;;;;;5032518;28;20252;-71
2021/05/01 06:01:26;;;;;;;17.63;13.67;;;9.40;99.90;;;;;;5030222;28;20233;-70
2021/05/01 06:03:55;;;;;;;16.83;13.27;;;9.40;99.90;;;;;;5029659;28;20274;-70
2021/05/01 06:06:25;;;;;;;20.33;14.17;;;9.40;99.90;;;;;;5032443;28;20210;-68
2021/05/01 06:08:53;;;;;;;17.00;13.53;;;9.40;99.90;;;;;;5032382;28;20233;-69
2021/05/01 06:11:21;;;;;;;19.33;14.90;;;9.50;99.90;;;;;;5033929;28;20232;-68
2021/05/01 06:13:47;;;;;;;20.47;13.77;;;9.50;99.90;;;;;;5035287;28;20260;-70
2021/05/01 06:16:16;;;;;;;19.20;13.40;;;9.60;99.90;;;;;;5031813;28;20293;-69
2021/05/01 06:18:44;;;;;;;16.40;13.13;;;9.60;99.90;;;;;;5026744;28;20219;-66
2021/05/01 06:21:11;;;;;;;18.90;14.40;;;9.70;99.90;;;;;;5034235;28;20341;-68
2021/05/01 06:23:39;;;;;;;18.57;14.30;;;9.70;99.90;;;;;;5035807;28;20607;-70
2021/05/01 06:26:06;;;;;;;18.57;14.23;;;9.60;99.90;;;;;;5035402;28;20210;-69
2021/05/01 06:28:33;;;;;;;18.77;14.47;;;9.60;99.90;;;;;;5035432;28;20206;-70
2021/05/01 06:31:01;;;;;;;17.83;14.03;;;9.70;99.90;;;;;;5032695;28;20704;-69
2021/05/01 06:33:28;;;;;;;17.90;14.27;;;9.70;99.90;;;;;;5032158;28;20234;-69
2021/05/01 06:35:55;;;;;;;17.37;13.83;;;9.80;99.90;;;;;;5033788;28;20211;-70
2021/05/01 06:38:22;;;;;;;18.93;14.10;;;9.90;99.90;;;;;;5036117;28;20214;-71
2021/05/01 06:40:53;;;;;;;20.33;14.73;;;9.90;99.90;;;;;;5029554;28;20546;-69
2021/05/01 06:43:31;;;;;;;19.47;14.73;;;10.00;99.90;;;;;;5033451;28;20257;-67
2021/05/01 06:45:58;;;;;;;19.57;14.47;;;10.00;99.90;;;;;;5033756;28;20199;-69
2021/05/01 06:48:28;;;;;;;15.93;13.03;;;10.10;99.90;;;;;;5032332;28;20203;-68
2021/05/01 06:51:00;;;;;;;19.90;14.37;;;10.10;99.90;;;;;;5034311;28;20312;-68
2021/05/01 06:53:29;;;;;;;21.73;15.17;;;10.10;99.90;;;;;;5031805;28;20202;-68
2021/05/01 06:56:01;;;;;;;21.87;16.13;;;10.20;99.90;;;;;;5029492;28;20206;-68
2021/05/01 06:58:29;;;;;;;19.57;15.23;;;10.30;99.90;;;;;;5032634;28;20218;-69
2021/05/01 07:00:57;;;;;;;21.50;16.27;;;10.30;99.90;;;;;;5032845;28;20234;-69
2021/05/01 07:03:26;;;;;;;20.63;15.50;;;10.40;99.90;;;;;;5031558;28;20203;-68
2021/05/01 07:05:56;;;;;;;21.33;16.47;;;10.40;99.90;;;;;;5031406;28;20264;-70
2021/05/01 07:08:22;;;;;;;19.70;15.47;;;10.50;99.90;;;;;;5031576;28;20203;-70
2021/05/01 07:10:48;;;;;;;19.73;15.33;;;10.60;99.90;;;;;;5031832;28;20230;-69
2021/05/01 07:13:16;;;;;;;18.17;13.37;;;10.70;99.90;;;;;;5032252;28;20671;-69
2021/05/01 07:15:42;;;;;;;14.03;12.37;;;10.60;99.90;;;;;;5033153;28;20268;-70
2021/05/01 07:18:10;;;;;;;16.57;13.07;;;10.60;99.90;;;;;;5032593;28;20628;-68
2021/05/01 07:20:37;;;;;;;15.10;13.03;;;10.60;99.90;;;;;;5035944;28;20210;-70
2021/05/01 07:23:05;;;;;;;16.50;13.30;;;10.70;99.90;;;;;;5035404;28;20203;-67
2021/05/01 07:25:32;;;;;;;17.80;12.53;;;10.70;99.90;;;;;;5034049;28;20290;-68
2021/05/01 07:28:02;;;;;;;13.80;11.30;;;10.80;99.90;;;;;;5033752;28;20206;-67
2021/05/01 07:30:30;;;;;;;14.50;10.77;;;10.80;99.90;;;;;;5031370;28;20202;-67
2021/05/01 07:33:01;;;;;;;13.10;11.40;;;10.80;99.90;;;;;;5033669;28;20242;-67
2021/05/01 07:35:31;;;;;;;14.03;10.90;;;10.90;99.90;;;;;;5031886;28;20289;-67
2021/05/01 07:38:03;;;;;;;12.30;9.80;;;10.90;99.90;;;;;;5034968;28;20218;-69
2021/05/01 07:40:30;;;;;;;13.73;11.23;;;10.80;99.90;;;;;;5032046;28;20699;-68
2021/05/01 07:42:59;;;;;;;13.10;10.07;;;10.90;99.90;;;;;;5032000;28;20210;-69
2021/05/01 07:45:27;;;;;;;11.93;10.27;;;10.90;99.90;;;;;;5034598;28;20352;-68
2021/05/01 07:47:56;;;;;;;13.27;10.20;;;11.00;99.90;;;;;;5033778;28;20217;-70
2021/05/01 07:50:23;;;;;;;15.37;10.57;;;11.00;99.90;;;;;;5030980;28;20209;-69
2021/05/01 07:52:51;;;;;;;12.03;9.70;;;11.20;99.90;;;;;;5034753;28;20213;-68
2021/05/01 07:55:18;;;;;;;13.13;9.17;;;11.20;99.90;;;;;;5035295;28;20566;-67
2021/05/01 07:57:45;;;;;;;10.60;8.87;;;11.30;99.90;;;;;;5032388;28;20256;-71
2021/05/01 08:00:13;;;;;;;11.20;9.60;;;11.30;99.90;;;;;;5030034;28;20302;-70
2021/05/01 08:02:40;;;;;;;9.97;8.67;;;11.20;99.90;;;;;;5034458;28;20496;-70
2021/05/01 08:05:08;;;;;;;10.03;8.67;;;11.20;99.90;;;;;;5034944;28;20228;-67
2021/05/01 08:07:35;;;;;;;9.97;8.47;;;11.20;99.90;;;;;;5031603;28;20207;-70
2021/05/01 08:10:01;;;;;;;10.43;8.47;;;11.30;99.90;;;;;;5033007;28;20215;-69
2021/05/01 08:12:28;;;;;;;11.33;8.67;;;11.30;99.90;;;;;;5034254;28;20260;-70
2021/05/01 08:14:55;;;;;;;9.27;7.80;;;11.20;99.90;;;;;;5028056;28;20290;-70
2021/05/01 08:17:21;;;;;;;10.93;8.63;;;11.20;99.90;;;;;;5032317;28;20626;-70
2021/05/01 08:19:48;;;;;;;10.60;7.97;;;11.20;99.90;;;;;;5033148;28;20674;-72
2021/05/01 08:22:14;;;;;;;9.60;7.97;;;11.20;99.90;;;;;;5030967;28;20206;-69
2021/05/01 08:24:40;;;;;;;9.47;7.53;;;11.30;99.90;;;;;;5030259;28;20256;-69
2021/05/01 08:27:07;;;;;;;12.57;8.73;;;11.30;99.90;;;;;;5029513;28;20264;-69
2021/05/01 08:29:33;;;;;;;10.57;8.23;;;11.30;99.90;;;;;;5033340;28;20572;-71
2021/05/01 08:32:01;;;;;;;12.57;9.23;;;11.40;99.90;;;;;;5034394;28;20227;-72
2021/05/01 08:34:27;;;;;;;11.47;9.40;;;11.50;99.90;;;;;;5031356;28;20206;-72
2021/05/01 08:36:54;;;;;;;10.23;9.20;;;11.50;99.90;;;;;;5033663;28;20212;-70
2021/05/01 08:39:20;;;;;;;11.90;10.07;;;11.50;99.90;;;;;;5033911;28;20297;-71
2021/05/01 08:41:47;;;;;;;11.83;9.30;;;11.40;99.90;;;;;;5034384;28;20300;-71
2021/05/01 08:44:14;;;;;;;10.40;8.60;;;11.40;99.90;;;;;;5031526;28;20290;-71
2021/05/01 08:46:41;;;;;;;11.43;9.47;;;11.40;99.90;;;;;;5030996;28;20218;-71
2021/05/01 08:49:09;;;;;;;10.67;8.67;;;11.40;99.90;;;;;;5026433;28;20211;-69
2021/05/01 08:51:37;;;;;;;10.10;8.10;;;11.40;99.90;;;;;;5034703;28;20381;-69
2021/05/01 08:54:04;;;;;;;10.33;8.43;;;11.40;99.90;;;;;;5035237;28;20632;-72
2021/05/01 08:56:30;;;;;;;9.87;8.17;;;11.40;99.90;;;;;;5035746;28;20252;-71
2021/05/01 08:59:00;;;;;;;9.47;8.47;;;11.50;99.90;;;;;;5024513;28;20345;-71
2021/05/01 09:01:27;;;;;;;11.87;8.50;;;11.40;99.90;;;;;;5033371;28;20227;-71
2021/05/01 09:03:54;;;;;;;10.13;8.30;;;11.40;99.90;;;;;;5035772;28;20214;-71
2021/05/01 09:06:22;;;;;;;10.10;8.27;;;11.50;99.90;;;;;;5035212;28;20618;-70
2021/05/01 09:08:55;;;;;;;10.70;8.17;;;11.40;99.90;;;;;;5035051;28;20206;-67
2021/05/01 09:11:33;;;;;;;9.00;8.00;;;11.50;99.90;;;;;;5033998;28;20220;-69
2021/05/01 09:13:59;;;;;;;12.97;8.80;;;11.50;99.90;;;;;;5022068;28;20318;-69
2021/05/01 09:16:25;;;;;;;9.27;7.40;;;11.60;99.90;;;;;;5020480;28;20242;-68
2021/05/01 09:18:55;;;;;;;11.23;8.63;;;11.70;99.90;;;;;;5034254;28;20233;-70
2021/05/01 09:21:25;;;;;;;10.00;8.33;;;11.70;99.90;;;;;;5034204;28;20206;-70
2021/05/01 09:23:53;;;;;;;11.70;8.03;;;11.70;99.90;;;;;;5036886;28;20271;-69
2021/05/01 09:26:34;;;;;;;11.40;8.47;;;11.80;99.90;;;;;;5037173;28;20711;-70
2021/05/01 09:29:00;;;;;;;11.57;9.03;;;11.80;99.90;;;;;;5027707;28;20234;-69
2021/05/01 09:31:37;;;;;;;8.83;7.90;;;11.80;99.90;;;;;;5034694;28;20223;-70
2021/05/01 09:34:04;;;;;;;9.50;8.37;;;11.70;99.90;;;;;;5036676;28;20325;-73
2021/05/01 09:36:32;;;;;;;19.57;9.10;;;11.70;99.90;;;;;;5035270;28;20214;-70
2021/05/01 09:39:09;;;;;;;10.53;8.10;;;11.70;99.90;;;;;;5035907;28;20274;-69
2021/05/01 09:41:38;;;;;;;10.60;8.27;;;11.70;99.90;;;;;;5038032;28;20206;-72
2021/05/01 09:44:06;;;;;;;10.73;8.20;;;11.70;99.90;;;;;;5037715;28;20214;-72
2021/05/01 09:46:56;;;;;;;9.20;8.13;;;11.60;99.90;;;;;;5037888;28;20218;-71
2021/05/01 09:49:24;;;;;;;10.83;8.80;;;11.60;99.90;;;;;;5035177;28;20210;-73
2021/05/01 09:51:53;;;;;;;11.00;8.90;;;11.60;99.90;;;;;;5029596;28;20683;-71
2021/05/01 09:54:24;;;;;;;9.53;8.47;;;11.50;99.90;;;;;;5032574;28;20214;-71
2021/05/01 09:56:51;;;;;;;8.50;7.60;;;11.40;99.90;;;;;;5028877;28;20656;-72
2021/05/01 09:59:18;;;;;;;10.47;8.57;;;11.40;99.90;;;;;;5027858;28;20210;-70
2021/05/01 10:01:56;;;;;;;14.33;9.03;;;11.40;99.90;;;;;;5026837;28;20218;-70
2021/05/01 10:04:22;;;;;;;10.73;8.43;;;11.40;99.90;;;;;;5027114;28;20297;-70
2021/05/01 10:06:52;;;;;;;8.77;7.83;;;11.40;99.90;;;;;;5032205;28;20208;-70
2021/05/01 10:09:23;;;;;;;9.77;8.73;;;11.40;99.90;;;;;;5030384;28;20210;-70
2021/05/01 10:11:52;;;;;;;9.70;8.40;;;11.50;99.90;;;;;;5031796;28;20226;-69
2021/05/01 10:14:36;;;;;;;9.67;8.07;;;11.50;99.90;;;;;;5031558;28;20226;-72
2021/05/01 10:17:03;;;;;;;10.43;8.43;;;11.50;99.90;;;;;;5031289;28;20230;-72
2021/05/01 10:19:44;;;;;;;11.40;8.47;;;11.60;99.90;;;;;;5030091;28;20230;-71
2021/05/01 10:22:37;;;;;;;10.53;8.80;;;11.70;99.90;;;;;;5030492;28;20252;-71
2021/05/01 10:25:08;;;;;;;9.03;7.80;;;11.80;99.90;;;;;;5023503;28;20294;-72
2021/05/01 10:27:43;;;;;;;10.17;8.43;;;11.80;99.90;;;;;;5029766;28;20207;-71
2021/05/01 10:30:15;;;;;;;9.80;8.80;;;11.80;99.90;;;;;;5030450;28;20233;-71
2021/05/01 10:32:51;;;;;;;13.00;8.60;;;11.80;99.90;;;;;;5028857;28;20696;-72
2021/05/01 10:35:19;;;;;;;10.27;8.07;;;11.80;99.90;;;;;;5030092;28;20224;-74
2021/05/01 10:37:54;;;;;;;11.17;8.73;;;11.80;99.90;;;;;;5032379;28;20621;-71
2021/05/01 10:40:21;;;;;;;9.63;8.10;;;11.80;99.90;;;;;;5031684;28;20206;-72
2021/05/01 10:43:07;;;;;;;9.27;8.17;;;11.80;99.90;;;;;;5029240;28;20305;-72
2021/05/01 10:45:33;;;;;;;9.47;8.23;;;11.80;99.90;;;;;;5032979;28;20282;-73
2021/05/01 10:48:08;;;;;;;11.00;8.67;;;11.90;99.90;;;;;;5032234;28;20545;-73
2021/05/01 10:50:36;;;;;;;10.50;8.30;;;11.90;99.90;;;;;;5028427;28;20210;-72
2021/05/01 10:53:05;;;;;;;9.60;8.27;;;11.90;99.90;;;;;;5029050;28;20233;-72
2021/05/01 10:55:50;;;;;;;9.37;8.13;;;11.90;99.90;;;;;;5031190;28;20207;-72
2021/05/01 10:58:41;;;;;;;9.07;8.10;;;11.90;99.90;;;;;;5031289;28;20207;-71
2021/05/01 11:01:09;;;;;;;9.70;8.07;;;11.90;99.90;;;;;;5029738;28;20202;-70
2021/05/01 11:03:44;;;;;;;12.23;7.67;;;11.90;99.90;;;;;;5033588;28;20207;-68
2021/05/01 11:06:22;;;;;;;10.83;8.20;;;11.80;99.90;;;;;;5031802;28;20209;-72
2021/05/01 11:08:58;;;;;;;10.00;8.47;;;11.80;99.90;;;;;;5032102;28;20202;-71
2021/05/01 11:11:30;;;;;;;9.77;8.30;;;11.70;99.90;;;;;;5034691;28;20281;-70
2021/05/01 11:13:57;;;;;;;10.67;8.77;;;11.70;99.90;;;;;;5032788;28;21560;-71
2021/05/01 11:16:31;;;;;;;10.60;7.77;;;11.70;99.90;;;;;;5033459;28;20654;-71
2021/05/01 11:19:00;;;;;;;11.00;8.10;;;11.80;99.90;;;;;;5031006;28;20282;-73
2021/05/01 11:21:30;;;;;;;10.83;8.20;;;11.90;99.90;;;;;;5028092;28;20203;-73
2021/05/01 11:23:58;;;;;;;9.67;8.00;;;12.00;99.90;;;;;;5025995;28;20291;-74
2021/05/01 11:26:25;;;;;;;10.37;7.60;;;12.10;99.90;;;;;;5021588;28;20709;-72
2021/05/01 11:28:52;;;;;;;10.00;8.33;;;12.20;99.90;;;;;;5024820;28;20556;-70
2021/05/01 11:31:21;;;;;;;9.63;8.43;;;12.30;99.90;;;;;;5029029;28;20579;-71
2021/05/01 11:33:48;;;;;;;8.80;7.87;;;12.40;99.90;;;;;;5023475;28;20284;-72
2021/05/01 11:36:20;;;;;;;8.97;7.43;;;12.50;99.90;;;;;;5024503;28;20291;-72
2021/05/01 11:38:50;;;;;;;10.27;7.87;;;12.50;99.90;;;;;;5030540;28;20553;-71
2021/05/01 11:41:18;;;;;;;9.97;8.00;;;12.60;99.90;;;;;;5032752;28;20237;-71
2021/05/01 11:43:46;;;;;;;11.03;8.27;;;12.60;99.90;;;;;;5035268;28;21656;-70
2021/05/01 11:46:24;;;;;;;8.37;7.13;;;12.60;99.90;;;;;;5035455;28;20211;-71
2021/05/01 11:49:01;;;;;;;9.20;8.23;;;12.60;99.90;;;;;;5035602;28;20202;-70
2021/05/01 11:51:34;;;;;;;9.60;7.87;;;12.60;99.90;;;;;;5034702;28;20293;-73
2021/05/01 11:54:13;;;;;;;10.47;7.73;;;12.50;99.90;;;;;;5031692;28;20563;-72
2021/05/01 11:56:52;;;;;;;11.13;8.13;;;12.60;99.90;;;;;;5031475;28;20306;-72
2021/05/01 11:59:19;;;;;;;10.60;8.33;;;12.50;99.90;;;;;;5032383;28;20293;-71
2021/05/01 12:01:50;;;;;;;10.70;7.97;;;12.40;99.90;;;;;;5034034;28;20673;-73
2021/05/01 12:04:21;;;;;;;10.90;8.10;;;12.40;99.90;;;;;;5032785;28;20286;-71
2021/05/01 12:06:54;;;;;;;9.17;7.67;;;12.30;99.90;;;;;;5035644;28;20218;-74
2021/05/01 12:09:25;;;;;;;9.93;8.40;;;12.20;99.90;;;;;;5036028;28;20245;-73
2021/05/01 12:11:53;;;;;;;10.23;8.60;;;12.10;99.90;;;;;;5031939;28;20225;-73
2021/05/01 12:14:19;;;;;;;12.73;8.97;;;12.00;99.90;;;;;;5033549;28;20688;-72
2021/05/01 12:16:46;;;;;;;9.03;7.80;;;12.00;99.90;;;;;;5033880;28;20214;-71
2021/05/01 12:19:25;;;;;;;9.80;8.60;;;12.00;99.90;;;;;;5034650;28;20242;-72
2021/05/01 12:21:53;;;;;;;9.13;7.10;;;12.00;99.90;;;;;;5032147;28;20237;-73
2021/05/01 12:24:25;;;;;;;10.43;8.97;;;11.90;99.90;;;;;;5032102;28;20214;-74
2021/05/01 12:26:52;;;;;;;10.37;9.27;;;11.80;99.90;;;;;;5031938;28;20657;-73
2021/05/01 12:29:26;;;;;;;10.43;8.03;;;11.90;99.90;;;;;;5033966;28;20287;-73
2021/05/01 12:31:53;;;;;;;10.40;8.33;;;11.80;99.90;;;;;;5033193;28;20222;-71
2021/05/01 12:34:21;;;;;;;10.83;8.17;;;11.90;99.90;;;;;;5034829;28;20679;-71
2021/05/01 12:36:49;;;;;;;12.23;9.03;;;11.80;99.90;;;;;;5031905;28;20257;-73
2021/05/01 12:39:16;;;;;;;11.77;9.00;;;11.70;99.90;;;;;;5032496;28;20258;-73
2021/05/01 12:41:44;;;;;;;10.80;9.33;;;11.70;99.90;;;;;;5030221;28;20269;-74
2021/05/01 12:44:33;;;;;;;10.53;8.60;;;11.70;99.90;;;;;;5035963;28;20293;-70